Time;durP1;ratioP1;P1;durP2;ratioP2;P2;SDS_P1;SDS_P2;PMS_P1;PMS_P2;Temp;Humidity;BMP_temperature;BMP_pressure;BME280_temperature;BME280_humidity;BME280_pressure;Samples;Min_cycle;Max_cycle;Signal;HPM_P1;HPM_P2
2022/12/01 00:00:11;;;;;;;;;14.50;14.00;;;;;8.31;76.70;100552.81;5056079;28;45546;-86
2022/12/01 00:02:37;;;;;;;;;13.50;12.25;;;;;8.29;76.38;100551.88;5056849;28;45590;-85
2022/12/01 00:05:02;;;;;;;;;13.75;12.00;;;;;8.47;76.48;100562.16;5056896;28;45557;-85
2022/12/01 00:07:28;;;;;;;;;13.00;12.25;;;;;8.48;76.25;100556.13;5056765;28;45551;-86
2022/12/01 00:12:42;;;;;;;;;12.25;10.50;;;;;8.34;76.45;100529.53;5056677;28;45433;-83
2022/12/01 00:15:11;;;;;;;;;15.25;13.00;;;;;8.60;76.15;100568.75;5057010;28;45428;-89
2022/12/01 00:17:37;;;;;;;;;15.50;14.00;;;;;8.59;76.24;100565.22;5056626;28;45410;-85
2022/12/01 00:20:04;;;;;;;;;12.25;10.25;;;;;8.59;75.99;100567.84;5056610;28;45404;-84
2022/12/01 00:22:30;;;;;;;;;13.50;12.75;;;;;8.63;76.15;100564.50;5056975;28;45420;-86
2022/12/01 00:24:55;;;;;;;;;13.25;11.75;;;;;8.68;76.05;100567.31;5055849;28;45344;-79
2022/12/01 00:27:21;;;;;;;;;16.25;13.00;;;;;8.70;76.01;100560.44;5056316;28;45453;-84
2022/12/01 00:29:46;;;;;;;;;9.00;9.00;;;;;8.65;75.79;100562.84;5056406;28;45327;-85
2022/12/01 00:32:12;;;;;;;;;10.75;9.00;;;;;8.59;76.65;100560.00;5058393;28;45256;-81
2022/12/01 00:34:38;;;;;;;;;14.25;12.25;;;;;8.55;76.54;100569.47;5056557;28;45523;-84
2022/12/01 00:37:04;;;;;;;;;15.00;11.25;;;;;8.44;76.93;100542.09;5056170;28;45247;-82
2022/12/01 00:39:29;;;;;;;;;9.00;9.00;;;;;8.56;76.54;100562.53;5056530;28;45375;-80
2022/12/01 00:41:55;;;;;;;;;8.25;7.75;;;;;8.60;76.02;100560.94;5056526;28;45369;-77
2022/12/01 00:44:20;;;;;;;;;11.00;8.00;;;;;8.58;76.32;100562.59;5054407;28;46256;-73
2022/12/01 00:46:46;;;;;;;;;9.50;8.00;;;;;8.46;76.33;100545.66;5055931;28;45478;-68
2022/12/01 00:49:12;;;;;;;;;9.00;7.75;;;;;8.54;76.61;100565.06;5056390;28;45452;-76
2022/12/01 00:51:38;;;;;;;;;8.50;7.75;;;;;8.51;76.88;100551.03;5056389;28;45491;-84
2022/12/01 00:54:03;;;;;;;;;8.00;7.00;;;;;8.53;76.89;100551.97;5055464;28;45487;-71
2022/12/01 00:56:29;;;;;;;;;9.00;7.75;;;;;8.58;76.75;100557.38;5055167;28;45488;-85
2022/12/01 00:58:54;;;;;;;;;9.75;9.00;;;;;8.50;76.65;100549.28;5053811;28;45330;-82
2022/12/01 01:01:20;;;;;;;;;5.50;5.25;;;;;8.59;76.34;100546.13;5058932;28;45457;-79
2022/12/01 01:03:46;;;;;;;;;6.25;6.00;;;;;8.60;75.62;100564.41;5058453;28;45391;-82
2022/12/01 01:06:12;;;;;;;;;10.00;9.00;;;;;8.61;75.86;100570.50;5058732;28;45381;-84
2022/12/01 01:08:38;;;;;;;;;8.00;7.00;;;;;8.53;76.14;100563.31;5058777;28;45388;-76
2022/12/01 01:11:04;;;;;;;;;7.50;6.50;;;;;8.50;76.31;100565.78;5058576;28;45549;-84
2022/12/01 01:13:29;;;;;;;;;7.75;7.00;;;;;8.51;76.05;100557.13;5073929;28;47968;-83
2022/12/01 01:16:00;;;;;;;;;8.00;8.00;;;;;8.56;75.78;100555.59;5058448;28;45738;-85
2022/12/01 01:18:26;;;;;;;;;9.50;8.25;;;;;8.56;75.69;100559.91;5058544;28;45547;-85
2022/12/01 01:21:10;;;;;;;;;12.00;7.50;;;;;8.53;75.88;100552.88;5074073;28;45597;-80
2022/12/01 01:23:36;;;;;;;;;5.25;4.75;;;;;8.60;75.61;100560.94;5055813;28;45541;-85
2022/12/01 01:26:04;;;;;;;;;6.75;6.25;;;;;8.55;75.31;100559.03;5058173;28;45520;-82
2022/12/01 01:28:30;;;;;;;;;5.75;4.50;;;;;8.54;75.26;100559.84;5058285;28;45499;-82
2022/12/01 01:30:57;;;;;;;;;8.00;4.50;;;;;8.50;75.29;100557.09;5058864;28;45310;-84
2022/12/01 01:33:22;;;;;;;;;6.00;6.00;;;;;8.49;75.02;100560.50;5058539;28;45417;-84
2022/12/01 01:35:48;;;;;;;;;4.25;3.75;;;;;8.46;74.93;100552.59;5058028;28;45347;-77
2022/12/01 01:38:13;;;;;;;;;3.00;3.00;;;;;8.31;75.07;100548.50;5058556;28;45330;-82
2022/12/01 01:40:46;;;;;;;;;6.00;5.00;;;;;8.26;75.36;100557.88;5058417;28;45437;-85
2022/12/01 01:43:17;;;;;;;;;5.00;3.50;;;;;8.24;75.26;100563.84;5058222;28;45423;-85
2022/12/01 01:45:43;;;;;;;;;6.00;6.00;;;;;8.17;75.48;100563.56;5058273;28;45527;-85
2022/12/01 01:48:12;;;;;;;;;4.25;4.00;;;;;8.19;75.41;100565.38;5058206;28;45405;-84
2022/12/01 01:50:38;;;;;;;;;5.50;4.25;;;;;8.12;75.56;100574.66;5055628;28;45405;-85
2022/12/01 01:53:10;;;;;;;;;7.75;7.25;;;;;8.05;76.15;100568.28;5058149;28;45393;-86
2022/12/01 01:55:37;;;;;;;;;6.25;6.00;;;;;7.96;75.92;100574.03;5055196;28;45224;-85
2022/12/01 01:58:07;;;;;;;;;6.75;6.00;;;;;7.83;76.92;100581.25;5058135;28;45413;-85
2022/12/01 02:00:33;;;;;;;;;7.00;6.25;;;;;7.76;76.98;100586.22;5058193;28;45667;-85
2022/12/01 02:02:59;;;;;;;;;6.50;6.00;;;;;7.79;76.88;100587.16;5057643;28;46041;-81
2022/12/01 02:05:29;;;;;;;;;5.00;3.50;;;;;7.82;76.81;100584.66;5057777;28;45512;-85
2022/12/01 02:07:57;;;;;;;;;7.25;7.25;;;;;7.75;76.63;100575.72;5058035;28;45285;-82
2022/12/01 02:10:41;;;;;;;;;6.75;5.50;;;;;7.90;76.43;100589.38;5057678;28;45255;-85
2022/12/01 02:13:19;;;;;;;;;8.00;6.00;;;;;7.89;76.04;100592.78;5056495;28;46226;-86
2022/12/01 02:16:09;;;;;;;;;5.00;4.00;;;;;7.84;76.72;100603.81;5056807;28;45590;-86
2022/12/01 02:18:52;;;;;;;;;4.50;4.00;;;;;7.90;76.79;100602.38;5057483;28;45417;-84
2022/12/01 02:21:21;;;;;;;;;6.00;5.50;;;;;7.97;76.86;100600.91;5055632;28;45686;-76
2022/12/01 02:24:30;;;;;;;;;6.00;5.50;;;;;8.03;76.70;100602.88;5057277;28;45465;-78
2022/12/01 02:27:03;;;;;;;;;7.00;6.00;;;;;8.06;76.73;100596.09;5054870;28;45667;-85
2022/12/01 02:30:17;;;;;;;;;7.00;6.25;;;;;8.08;76.65;100597.06;5057312;28;45634;-84
2022/12/01 02:33:02;;;;;;;;;3.25;3.25;;;;;8.11;76.55;100601.47;5050411;28;45980;-85
2022/12/01 02:35:28;;;;;;;;;6.00;4.00;;;;;8.13;76.15;100603.31;5056294;28;45440;-85
2022/12/01 02:38:13;;;;;;;;;5.00;3.50;;;;;8.09;76.21;100609.22;5057238;28;45311;-85
2022/12/01 02:41:09;;;;;;;;;4.00;4.00;;;;;8.07;75.95;100610.00;5055129;28;45603;-85
2022/12/01 02:43:47;;;;;;;;;4.75;3.50;;;;;8.03;75.57;100605.50;5057213;28;45641;-86
2022/12/01 02:46:30;;;;;;;;;3.00;2.00;;;;;7.99;75.93;100614.00;5057166;28;46169;-84
2022/12/01 02:49:00;;;;;;;;;6.00;2.00;;;;;8.01;76.06;100609.75;5054186;28;45508;-85
2022/12/01 02:51:30;;;;;;;;;7.25;2.75;;;;;8.03;75.92;100615.91;5056844;28;45454;-84
2022/12/01 02:54:01;;;;;;;;;3.00;3.00;;;;;8.05;75.42;100609.91;5054454;28;45561;-85
2022/12/01 02:56:27;;;;;;;;;6.00;3.00;;;;;8.06;75.45;100611.72;5057063;28;46230;-85
2022/12/01 02:58:52;;;;;;;;;4.00;4.00;;;;;8.08;75.19;100617.88;5056860;28;45427;-85
2022/12/01 03:01:26;;;;;;;;;6.75;3.75;;;;;8.08;75.20;100617.88;5057214;28;45491;-83
2022/12/01 03:04:07;;;;;;;;;3.50;2.50;;;;;8.09;75.01;100613.53;5055856;28;45476;-84
2022/12/01 03:07:00;;;;;;;;;4.00;3.75;;;;;8.08;75.11;100617.88;5056644;28;46205;-83
2022/12/01 03:09:32;;;;;;;;;4.00;4.00;;;;;8.09;74.93;100621.34;5055313;28;45516;-84
2022/12/01 03:12:22;;;;;;;;;5.50;3.00;;;;;8.08;75.20;100620.47;5054263;28;45604;-83
2022/12/01 03:15:14;;;;;;;;;6.00;3.00;;;;;8.09;74.87;100627.44;5055794;28;45606;-80
2022/12/01 03:17:48;;;;;;;;;3.00;3.00;;;;;7.81;74.84;100577.69;5054530;28;45610;-84
2022/12/01 03:20:46;;;;;;;;;3.50;3.50;;;;;8.05;75.14;100627.25;5056781;28;45267;-83
2022/12/01 03:23:17;;;;;;;;;6.75;5.50;;;;;8.01;75.23;100625.34;5056049;28;45496;-84
2022/12/01 03:25:48;;;;;;;;;3.00;3.00;;;;;7.82;75.49;100595.06;5056973;28;45354;-84
2022/12/01 03:28:16;;;;;;;;;4.00;4.00;;;;;7.95;75.36;100625.97;5056288;28;46229;-85
2022/12/01 03:30:44;;;;;;;;;4.00;3.75;;;;;7.75;75.72;100604.34;5056059;28;45511;-84
2022/12/01 03:33:18;;;;;;;;;3.75;3.25;;;;;7.93;75.72;100635.44;5056464;28;45643;-84
2022/12/01 03:35:58;;;;;;;;;3.75;3.50;;;;;7.93;75.71;100631.09;5055321;28;45512;-84
2022/12/01 03:38:26;;;;;;;;;6.00;4.00;;;;;7.76;76.10;100620.00;5054684;28;46221;-85
2022/12/01 03:40:57;;;;;;;;;4.00;3.50;;;;;7.85;76.25;100642.03;5056130;28;45479;-84
2022/12/01 03:43:30;;;;;;;;;3.00;2.00;;;;;7.71;76.50;100629.31;5058009;28;45345;-85
2022/12/01 03:46:20;;;;;;;;;4.00;3.25;;;;;7.87;76.06;100646.47;5059657;28;45552;-84
2022/12/01 03:48:45;;;;;;;;;4.50;4.00;;;;;7.90;76.36;100644.00;5058088;28;45455;-85
2022/12/01 03:51:14;;;;;;;;;5.50;3.50;;;;;7.86;76.41;100647.31;5057201;28;45491;-82
2022/12/01 03:53:43;;;;;;;;;3.00;3.00;;;;;7.86;76.74;100649.91;5057469;28;45432;-85
2022/12/01 03:56:10;;;;;;;;;6.00;4.00;;;;;7.86;76.83;100656.78;5057876;28;45219;-84
2022/12/01 03:58:41;;;;;;;;;3.75;3.50;;;;;7.87;76.57;100658.59;5057409;28;45551;-85
2022/12/01 04:01:08;;;;;;;;;5.50;3.00;;;;;7.89;76.58;100657.81;5057715;28;45242;-85
2022/12/01 04:03:34;;;;;;;;;4.00;3.00;;;;;7.89;76.75;100657.81;5057745;28;45337;-84
2022/12/01 04:05:59;;;;;;;;;6.00;5.00;;;;;7.93;76.55;100658.84;5057757;28;45285;-85
2022/12/01 04:08:25;;;;;;;;;7.00;5.50;;;;;7.91;76.25;100645.75;5057274;28;45530;-85
2022/12/01 04:10:51;;;;;;;;;7.00;5.50;;;;;7.95;76.02;100654.59;5057215;28;45417;-84
2022/12/01 04:13:22;;;;;;;;;4.00;3.75;;;;;8.01;75.88;100667.84;5058684;28;45315;-85
2022/12/01 04:15:49;;;;;;;;;7.00;6.00;;;;;8.03;76.18;100662.72;5058151;28;45208;-84
2022/12/01 04:18:15;;;;;;;;;7.00;6.00;;;;;7.99;76.23;100666.91;5057524;28;45611;-85
2022/12/01 04:20:42;;;;;;;;;5.00;5.00;;;;;8.02;76.49;100663.53;5058439;28;45405;-81
2022/12/01 04:23:08;;;;;;;;;5.50;4.00;;;;;8.03;76.30;100674.00;5059357;28;45531;-86
2022/12/01 04:25:34;;;;;;;;;2.25;1.00;;;;;7.83;76.46;100635.88;5059516;28;45380;-85
2022/12/01 04:27:59;;;;;;;;;4.25;3.00;;;;;8.04;76.54;100662.78;5061311;28;45534;-85
2022/12/01 04:30:25;;;;;;;;;7.00;5.00;;;;;8.04;76.16;100667.09;5059142;28;45436;-85
2022/12/01 04:32:50;;;;;;;;;7.00;6.75;;;;;7.97;76.28;100665.94;5058835;28;45354;-75
2022/12/01 04:35:16;;;;;;;;;2.00;2.00;;;;;8.02;76.60;100677.44;5060857;28;45463;-83
2022/12/01 04:37:41;;;;;;;;;5.50;5.50;;;;;8.04;76.53;100680.09;5060753;28;45446;-85
2022/12/01 04:40:07;;;;;;;;;6.75;6.00;;;;;8.05;76.52;100672.34;5061179;28;45245;-85
2022/12/01 04:42:33;;;;;;;;;6.25;6.00;;;;;8.08;76.35;100680.31;5058920;28;45685;-85
2022/12/01 04:44:58;;;;;;;;;8.50;6.00;;;;;8.10;76.50;100673.47;5058649;28;45311;-85
2022/12/01 04:47:24;;;;;;;;;8.00;4.00;;;;;7.95;76.55;100652.00;5058083;28;45239;-85
2022/12/01 04:49:50;;;;;;;;;7.75;7.00;;;;;8.10;76.48;100675.19;5059346;28;45428;-85
2022/12/01 04:52:15;;;;;;;;;6.50;6.00;;;;;8.09;76.66;100671.66;5059572;28;45468;-85
2022/12/01 04:54:41;;;;;;;;;7.75;7.50;;;;;8.10;76.59;100672.56;5059342;28;45386;-85
2022/12/01 04:57:06;;;;;;;;;6.00;4.00;;;;;8.14;76.72;100674.47;5059077;28;46028;-85
2022/12/01 04:59:32;;;;;;;;;5.50;4.00;;;;;8.14;76.47;100669.28;5058623;28;45408;-85
2022/12/01 05:01:57;;;;;;;;;6.00;3.75;;;;;8.13;76.15;100667.47;5058477;28;45348;-86
2022/12/01 05:04:23;;;;;;;;;6.50;6.00;;;;;8.15;76.22;100668.44;5058714;28;45478;-85
2022/12/01 05:06:48;;;;;;;;;5.00;5.00;;;;;7.99;76.66;100640.88;5057410;28;46078;-85
2022/12/01 05:09:15;;;;;;;;;5.75;5.00;;;;;8.13;76.20;100657.06;5056861;28;45441;-86
2022/12/01 05:11:41;;;;;;;;;7.00;6.00;;;;;8.14;76.40;100658.88;5057041;28;45583;-84
2022/12/01 05:14:06;;;;;;;;;9.75;7.00;;;;;8.19;76.40;100665.13;5057133;28;45207;-87
2022/12/01 05:16:33;;;;;;;;;8.00;6.00;;;;;8.19;75.96;100666.84;5056884;28;45559;-87
2022/12/01 05:21:47;;;;;;;;;7.00;6.50;;;;;8.05;75.35;100637.66;5056772;28;45429;-87
2022/12/01 05:24:13;;;;;;;;;8.25;6.75;;;;;8.13;76.01;100651.88;5056904;28;45460;-87
2022/12/01 05:26:40;;;;;;;;;4.00;4.00;;;;;8.12;76.65;100660.53;5056603;28;45440;-87
2022/12/01 05:29:06;;;;;;;;;7.50;5.50;;;;;8.12;76.75;100653.59;5056638;28;45416;-86
2022/12/01 05:31:32;;;;;;;;;6.00;6.00;;;;;8.16;76.54;100650.28;5056789;28;45418;-87
2022/12/01 05:33:58;;;;;;;;;6.75;6.00;;;;;8.15;75.77;100651.09;5056844;28;45311;-86
2022/12/01 05:36:24;;;;;;;;;8.75;7.00;;;;;8.17;75.96;100653.78;5056568;28;45239;-73
2022/12/01 05:38:49;;;;;;;;;6.00;6.00;;;;;8.15;75.94;100643.28;5056692;28;45198;-86
2022/12/01 05:41:15;;;;;;;;;7.25;6.75;;;;;8.19;75.98;100646.91;5056643;28;45209;-86
2022/12/01 05:43:41;;;;;;;;;7.00;7.00;;;;;8.15;76.31;100647.63;5056868;28;45433;-86
2022/12/01 05:46:06;;;;;;;;;7.75;7.00;;;;;8.15;76.33;100645.91;5059227;28;45313;-86
2022/12/01 05:48:32;;;;;;;;;7.75;7.00;;;;;8.14;76.25;100643.25;5059724;28;45471;-86
2022/12/01 05:50:58;;;;;;;;;7.25;6.75;;;;;7.93;76.41;100606.81;5059729;28;45404;-86
2022/12/01 05:53:23;;;;;;;;;7.00;6.00;;;;;7.88;76.17;100605.75;5060317;28;45386;-86
2022/12/01 05:55:53;;;;;;;;;7.75;6.00;;;;;8.00;76.00;100640.06;5059594;28;46065;-87
2022/12/01 05:58:19;;;;;;;;;7.00;6.75;;;;;7.99;76.68;100653.00;5059840;28;45270;-86
2022/12/01 06:00:44;;;;;;;;;9.25;9.00;;;;;7.97;76.45;100651.22;5059586;28;45481;-86
2022/12/01 06:03:10;;;;;;;;;12.00;9.00;;;;;7.95;76.78;100652.88;5060154;28;45559;-86
2022/12/01 06:05:35;;;;;;;;;9.25;9.25;;;;;7.91;76.94;100663.09;5059386;28;46374;-85
2022/12/01 06:08:01;;;;;;;;;12.75;12.00;;;;;7.93;76.90;100654.53;5059654;28;45444;-86
2022/12/01 06:10:26;;;;;;;;;9.00;8.75;;;;;7.80;76.76;100626.25;5059562;28;45407;-80
2022/12/01 06:12:52;;;;;;;;;17.25;15.75;;;;;7.94;76.83;100658.03;5060089;28;45466;-86
2022/12/01 06:15:17;;;;;;;;;9.00;8.00;;;;;7.89;76.53;100660.41;5059544;28;46102;-86
2022/12/01 06:17:43;;;;;;;;;7.75;7.00;;;;;7.87;76.25;100656.88;5059472;28;45346;-86
2022/12/01 06:20:09;;;;;;;;;8.25;7.00;;;;;7.85;75.51;100665.44;5059695;28;45397;-87
2022/12/01 06:22:35;;;;;;;;;3.00;3.00;;;;;7.72;75.77;100649.31;5058278;28;45491;-87
2022/12/01 06:25:00;;;;;;;;;5.50;5.50;;;;;7.76;75.20;100665.94;5059316;28;45515;-85
2022/12/01 06:27:26;;;;;;;;;5.00;2.75;;;;;7.72;75.58;100667.50;5058321;28;45469;-86
2022/12/01 06:29:51;;;;;;;;;5.00;5.00;;;;;7.64;75.57;100670.59;5059397;28;45230;-85
2022/12/01 06:32:17;;;;;;;;;7.75;7.00;;;;;7.55;75.79;100666.75;5059640;28;45140;-85
2022/12/01 06:34:43;;;;;;;;;54.25;44.75;;;;;7.47;75.91;100665.53;5058872;28;46008;-85
2022/12/01 06:37:10;;;;;;;;;49.50;39.25;;;;;7.48;75.92;100664.72;5059086;28;45339;-86
2022/12/01 06:39:35;;;;;;;;;45.50;39.00;;;;;7.49;75.96;100665.63;5059262;28;45434;-85
2022/12/01 06:42:01;;;;;;;;;52.25;43.75;;;;;7.49;75.60;100666.50;5059232;28;45472;-85
2022/12/01 06:44:26;;;;;;;;;45.25;39.25;;;;;7.42;75.86;100661.88;5059016;28;45420;-85
2022/12/01 06:46:52;;;;;;;;;25.50;23.75;;;;;7.43;75.71;100670.53;5058916;28;45579;-85
2022/12/01 06:49:19;;;;;;;;;26.00;24.00;;;;;7.42;75.78;100666.16;5059157;28;45298;-84
2022/12/01 06:51:45;;;;;;;;;20.00;17.50;;;;;7.39;75.67;100673.81;5058954;28;45421;-84
2022/12/01 06:54:11;;;;;;;;;15.50;14.75;;;;;7.42;75.36;100666.16;5058632;28;45535;-85
2022/12/01 06:56:37;;;;;;;;;9.50;8.75;;;;;7.42;75.61;100672.25;5057479;28;45251;-81
2022/12/01 06:59:02;;;;;;;;;14.00;8.75;;;;;7.42;75.31;100669.66;5059032;28;45400;-82
2022/12/01 07:01:28;;;;;;;;;9.75;8.75;;;;;7.42;75.95;100677.47;5059475;28;45783;-84
2022/12/01 07:03:54;;;;;;;;;17.75;14.50;;;;;7.46;76.17;100679.38;5058709;28;46259;-84
2022/12/01 07:06:19;;;;;;;;;15.25;13.00;;;;;7.49;75.95;100674.28;5059069;28;45293;-85
2022/12/01 07:08:45;;;;;;;;;16.25;15.00;;;;;7.49;76.34;100682.09;5059565;28;45361;-85
2022/12/01 07:11:13;;;;;;;;;18.50;14.25;;;;;7.40;76.40;100668.72;5058770;28;45282;-86
2022/12/01 07:13:39;;;;;;;;;29.25;29.00;;;;;7.52;76.65;100686.53;5058506;28;46093;-87
2022/12/01 07:16:07;;;;;;;;;30.75;29.25;;;;;7.52;76.62;100695.25;5058253;28;45491;-84
2022/12/01 07:18:35;;;;;;;;;26.75;25.75;;;;;7.56;76.29;100694.56;5058188;28;45520;-84
2022/12/01 07:21:04;;;;;;;;;29.75;27.00;;;;;7.59;76.37;100691.19;5058641;28;45397;-83
2022/12/01 07:23:30;;;;;;;;;35.00;34.00;;;;;7.68;76.01;100699.41;5058418;28;45413;-88
2022/12/01 07:26:03;;;;;;;;;23.00;22.75;;;;;7.70;75.72;100705.56;5058836;28;45500;-86
2022/12/01 07:28:29;;;;;;;;;13.00;11.50;;;;;7.53;75.64;100676.19;5058094;28;45365;-82
2022/12/01 07:31:05;;;;;;;;;15.50;13.75;;;;;7.53;75.42;100685.72;5058314;28;45476;-84
2022/12/01 07:33:30;;;;;;;;;71.00;57.25;;;;;7.77;75.38;100717.13;5058394;28;45449;-72
2022/12/01 07:35:57;;;;;;;;;25.00;22.75;;;;;7.80;75.36;100724.16;5057665;28;45449;-84
2022/12/01 07:38:22;;;;;;;;;49.25;42.00;;;;;7.84;75.79;100724.38;5058603;28;45536;-85
2022/12/01 07:40:48;;;;;;;;;40.50;38.25;;;;;7.64;75.47;100683.59;5059545;28;45508;-93
2022/12/01 07:43:13;;;;;;;;;34.00;32.50;;;;;7.96;75.60;100716.22;5057800;28;45941;-87
2022/12/01 07:45:39;;;;;;;;;20.00;16.75;;;;;8.03;75.24;100722.56;5059600;28;45380;-89
2022/12/01 07:48:05;;;;;;;;;20.25;18.00;;;;;8.03;74.91;100720.84;5059855;28;45979;-87
2022/12/01 07:50:31;;;;;;;;;34.25;31.75;;;;;7.92;74.63;100694.38;5059595;28;45331;-75
2022/12/01 07:52:56;;;;;;;;;57.25;48.25;;;;;7.97;74.64;100708.44;5059795;28;46028;-86
2022/12/01 07:55:22;;;;;;;;;29.25;26.25;;;;;8.01;75.02;100724.22;5060854;28;45313;-87
2022/12/01 07:57:47;;;;;;;;;26.25;22.25;;;;;8.01;75.13;100742.41;5058293;28;45372;-85
2022/12/01 08:00:13;;;;;;;;;15.50;13.25;;;;;7.93;75.22;100724.75;5060392;28;45355;-88
2022/12/01 08:02:39;;;;;;;;;15.00;14.25;;;;;8.00;74.93;100744.13;5075911;28;46066;-87
2022/12/01 08:05:06;;;;;;;;;23.00;20.00;;;;;7.99;74.96;100742.34;5060843;28;45363;-90
2022/12/01 08:07:31;;;;;;;;;17.50;16.00;;;;;8.10;75.08;100748.91;5060320;28;45222;-86
2022/12/01 08:09:57;;;;;;;;;13.00;12.50;;;;;8.17;74.47;100750.94;5060827;28;45349;-91
2022/12/01 08:12:22;;;;;;;;;17.25;15.00;;;;;8.26;74.53;100747.84;5060522;28;46025;-89
2022/12/01 08:14:48;;;;;;;;;22.75;20.25;;;;;8.28;73.96;100754.00;5059658;28;45373;-89
2022/12/01 08:17:13;;;;;;;;;20.50;20.00;;;;;8.15;74.18;100726.56;5059783;28;45399;-87
2022/12/01 08:19:39;;;;;;;;;33.50;31.25;;;;;8.29;73.48;100747.09;5059777;28;45315;-87
2022/12/01 08:22:04;;;;;;;;;19.25;15.25;;;;;8.25;73.41;100755.59;5057433;28;45468;-86
2022/12/01 08:24:30;;;;;;;;;20.25;16.50;;;;;8.04;73.14;100720.03;5058087;28;45403;-83
2022/12/01 08:26:55;;;;;;;;;22.00;20.50;;;;;8.15;73.64;100751.69;5057018;28;45381;-84
2022/12/01 08:29:21;;;;;;;;;15.50;13.50;;;;;8.21;73.52;100758.88;5056407;28;45553;-85
2022/12/01 08:31:47;;;;;;;;;22.75;19.25;;;;;8.21;73.62;100761.50;5053839;28;45537;-87
2022/12/01 08:34:13;;;;;;;;;19.75;16.50;;;;;8.30;73.93;100759.28;5056375;28;45468;-82
2022/12/01 08:36:38;;;;;;;;;18.50;14.50;;;;;8.38;74.17;100772.63;5056971;28;45476;-85
2022/12/01 08:39:07;;;;;;;;;15.25;9.75;;;;;8.47;73.95;100771.31;5057177;28;45467;-88
2022/12/01 08:41:32;;;;;;;;;12.50;9.00;;;;;8.55;73.21;100775.16;5056095;28;45546;-81
2022/12/01 08:43:58;;;;;;;;;10.25;9.00;;;;;8.65;73.54;100772.91;5056485;28;45415;-84
2022/12/01 08:46:25;;;;;;;;;10.75;9.75;;;;;8.53;72.95;100740.34;5056617;28;45554;-82
2022/12/01 08:48:50;;;;;;;;;10.50;8.50;;;;;8.80;72.84;100777.88;5055507;28;45444;-78
2022/12/01 08:51:17;;;;;;;;;11.25;10.00;;;;;8.85;72.21;100779.81;5056089;28;45843;-85
2022/12/01 08:53:47;;;;;;;;;14.50;9.50;;;;;8.72;72.20;100739.38;5056401;28;45602;-85
2022/12/01 08:56:20;;;;;;;;;10.75;10.00;;;;;9.00;72.00;100781.28;5056324;28;46256;-85
2022/12/01 08:58:46;;;;;;;;;11.75;9.25;;;;;8.92;71.17;100786.19;5056413;28;45376;-84
2022/12/01 09:01:14;;;;;;;;;13.50;9.25;;;;;8.99;71.40;100782.97;5056047;28;46141;-84
2022/12/01 09:03:41;;;;;;;;;9.75;8.50;;;;;9.08;71.38;100782.47;5056152;28;45546;-85
2022/12/01 09:06:10;;;;;;;;;10.25;9.00;;;;;9.14;70.72;100786.22;5056465;28;45455;-82
2022/12/01 09:08:36;;;;;;;;;7.75;7.75;;;;;9.21;70.91;100791.66;5056059;28;45671;-85
2022/12/01 09:11:08;;;;;;;;;12.75;9.50;;;;;9.19;69.37;100786.41;5055472;28;45568;-86
2022/12/01 09:13:34;;;;;;;;;9.75;8.50;;;;;9.06;68.38;100790.22;5055938;28;45417;-77
2022/12/01 09:16:06;;;;;;;;;10.50;10.50;;;;;9.13;69.19;100792.25;5055152;28;45299;-83
2022/12/01 09:18:33;;;;;;;;;10.00;8.25;;;;;9.16;69.01;100791.50;5056967;28;45366;-83
2022/12/01 09:20:59;;;;;;;;;8.25;8.00;;;;;9.18;69.29;100795.03;5059567;28;46075;-82
2022/12/01 09:23:25;;;;;;;;;9.75;9.00;;;;;9.24;68.78;100800.50;5059833;28;45414;-83
2022/12/01 09:25:52;;;;;;;;;14.00;12.75;;;;;8.96;68.59;100751.59;5059931;28;45397;-82
2022/12/01 09:28:18;;;;;;;;;13.50;12.50;;;;;9.30;69.15;100790.31;5059967;28;45303;-84
2022/12/01 09:30:45;;;;;;;;;13.75;11.00;;;;;9.40;69.21;100795.88;5058908;28;46277;-82
2022/12/01 09:33:12;;;;;;;;;15.50;11.50;;;;;9.50;69.25;100787.59;5059044;28;45343;-80
2022/12/01 09:35:38;;;;;;;;;39.75;36.00;;;;;9.38;69.02;100761.03;5059806;28;45558;-83
2022/12/01 09:38:04;;;;;;;;;29.00;25.25;;;;;9.61;68.98;100790.59;5059916;28;45354;-83
2022/12/01 09:40:37;;;;;;;;;31.00;29.00;;;;;9.69;68.73;100792.66;5059790;28;46139;-84
2022/12/01 09:43:10;;;;;;;;;57.00;45.50;;;;;9.79;68.45;100798.19;5059510;28;45298;-84
2022/12/01 09:45:39;;;;;;;;;22.50;20.25;;;;;9.87;68.40;100802.03;5059811;28;45211;-81
2022/12/01 09:48:12;;;;;;;;;19.00;17.00;;;;;9.88;68.34;100803.78;5059544;28;45401;-69
2022/12/01 09:50:38;;;;;;;;;32.25;30.25;;;;;9.95;67.74;100811.00;5059019;28;46723;-84
2022/12/01 09:53:10;;;;;;;;;60.00;49.75;;;;;9.95;67.76;100808.41;5059310;28;45523;-79
2022/12/01 09:55:38;;;;;;;;;26.00;24.00;;;;;9.81;67.32;100807.88;5059379;28;45401;-80
2022/12/01 09:58:12;;;;;;;;;17.25;13.00;;;;;9.68;67.32;100810.88;5058415;28;45578;-82
2022/12/01 10:00:42;;;;;;;;;12.00;11.00;;;;;9.70;66.97;100807.47;5059034;28;46104;-84
2022/12/01 10:03:08;;;;;;;;;14.75;13.50;;;;;9.76;67.36;100809.44;5059983;28;45285;-83
2022/12/01 10:05:47;;;;;;;;;15.00;15.00;;;;;9.81;67.39;100804.38;5059686;28;45436;-83
2022/12/01 10:08:21;;;;;;;;;10.50;9.75;;;;;9.94;66.72;100807.50;5059856;28;45480;-84
2022/12/01 10:10:50;;;;;;;;;11.75;9.50;;;;;10.08;66.05;100799.28;5059221;28;46123;-84
2022/12/01 10:13:19;;;;;;;;;10.25;10.00;;;;;9.95;65.60;100762.31;5059079;28;45316;-84
2022/12/01 10:16:06;;;;;;;;;9.75;8.75;;;;;10.30;64.99;100799.22;5059137;28;45260;-82
2022/12/01 10:18:48;;;;;;;;;8.25;7.00;;;;;10.47;64.71;100804.19;5059646;28;45402;-83
2022/12/01 10:21:32;;;;;;;;;11.75;10.50;;;;;10.65;63.53;100803.91;5058968;28;45441;-82
2022/12/01 10:24:20;;;;;;;;;10.00;8.50;;;;;10.77;63.62;100804.31;5058724;28;45422;-83
2022/12/01 10:27:15;;;;;;;;;13.25;12.00;;;;;10.90;62.16;100806.50;5059144;28;45413;-83
2022/12/01 10:29:55;;;;;;;;;8.75;7.75;;;;;10.94;60.94;100797.94;5055167;28;45727;-79
2022/12/01 10:32:34;;;;;;;;;9.00;8.00;;;;;10.88;62.09;100802.97;5058691;28;45488;-83
2022/12/01 10:35:00;;;;;;;;;9.75;9.00;;;;;10.97;61.38;100802.34;5058769;28;45556;-81
2022/12/01 10:37:29;;;;;;;;;8.25;8.00;;;;;11.01;61.43;100799.00;5059113;28;45374;-83
2022/12/01 10:39:57;;;;;;;;;7.25;7.25;;;;;11.07;60.67;100796.56;5059321;28;45472;-84
2022/12/01 10:42:38;;;;;;;;;10.75;8.50;;;;;11.01;61.83;100756.28;5058808;28;46178;-84
2022/12/01 10:45:13;;;;;;;;;10.00;9.00;;;;;11.11;60.55;100754.00;5059261;28;45408;-84
2022/12/01 10:48:17;;;;;;;;;9.25;6.00;;;;;11.45;60.62;100796.00;5059189;28;45514;-80
2022/12/01 10:50:50;;;;;;;;;13.00;11.25;;;;;11.67;60.14;100779.22;5058907;28;45247;-83
2022/12/01 10:53:18;;;;;;;;;4.00;3.25;;;;;11.93;60.24;100782.59;5058314;28;45370;-84
2022/12/01 10:55:48;;;;;;;;;10.00;7.50;;;;;12.02;58.82;100784.63;5058677;28;45344;-84
2022/12/01 10:58:15;;;;;;;;;12.50;10.50;;;;;12.05;58.79;100790.78;5058786;28;45360;-83
2022/12/01 11:00:43;;;;;;;;;11.75;11.00;;;;;11.99;58.03;100780.16;5058737;28;45340;-81
2022/12/01 11:03:21;;;;;;;;;16.50;13.75;;;;;11.84;59.01;100779.72;5058893;28;45356;-83
2022/12/01 11:05:52;;;;;;;;;10.25;7.75;;;;;11.91;59.21;100787.78;5058398;28;45245;-83
2022/12/01 11:08:22;;;;;;;;;9.50;7.75;;;;;11.84;57.74;100785.81;5058331;28;45334;-83
2022/12/01 11:10:49;;;;;;;;;10.50;7.75;;;;;11.58;58.56;100787.69;5058468;28;45293;-71
2022/12/01 11:13:28;;;;;;;;;12.25;11.50;;;;;11.61;60.00;100793.00;5058026;28;45775;-82
2022/12/01 11:15:56;;;;;;;;;16.25;13.25;;;;;11.85;59.80;100781.47;5057971;28;45506;-83
2022/12/01 11:18:23;;;;;;;;;12.25;11.75;;;;;12.27;58.04;100794.88;5058588;28;45492;-86
2022/12/01 11:21:13;;;;;;;;;11.25;10.75;;;;;12.49;58.60;100780.66;5058483;28;45252;-84
2022/12/01 11:23:49;;;;;;;;;9.00;6.50;;;;;12.82;57.25;100766.59;5052109;28;45468;-84
2022/12/01 11:26:29;;;;;;;;;6.75;6.50;;;;;13.27;56.65;100786.91;5058111;28;45592;-83
2022/12/01 11:29:00;;;;;;;;;14.00;12.50;;;;;13.36;54.73;100785.38;5059538;28;45172;-84
2022/12/01 11:31:41;;;;;;;;;8.00;8.00;;;;;13.46;56.17;100782.97;5058799;28;45384;-83
2022/12/01 11:34:16;;;;;;;;;9.00;8.00;;;;;13.54;56.19;100777.88;5058516;28;45503;-81
2022/12/01 11:36:46;;;;;;;;;7.50;7.00;;;;;13.61;56.14;100778.91;5058670;28;45345;-81
2022/12/01 11:39:31;;;;;;;;;8.25;8.25;;;;;13.45;55.11;100773.34;5058776;28;45536;-72
2022/12/01 11:42:22;;;;;;;;;9.00;7.33;;;;;13.37;56.48;100776.63;5058513;28;45525;-78